Hunlock Creek, Pennsylvania
Current Conditions -  °F | °C
As of 10:55 PM on Wednesday 22 Oct 2014 (Local Time) from KHZL Reporting Station
Overcast Overcast  
Wind Chill: 40°   Ceiling: 700
Heat Index: 46°   Visibility: 10mi
Dew Point: 43°   Wind: 14mph
Humidity: 87%   Direction: 330°NNW
Pressure: 29.94"   Gusts: 26mph
Location:  41.21°N, 76.07°W
Report Text: KHZL 230255Z AUTO 33012G23KT 10SM OVC007 08/06 A2994 RMK AO2
Loading
Personal Weather Stations






























Interactive Weather Map
Tropical Storm Tracking
New forecast layout! Learn more

10-Day Weather Forecast

Advertisements
Track Severe Weather on mobile